Camas, WA (98607)

8:34 PM PDT on August 02, 2015 (GMT -0700)
Lake Pointe | | Change Station
CLOSE
Current Station
Personal Weather Station
Location: Camas, WA
Elevation: 380 ft
Nearby Weather Stations

Elev 380 ft 45.61 °N, 122.43 °W | Updated 0 second ago

Mostly Cloudy
Mostly Cloudy
73.4 °F
Feels Like 77 °F
N
0.0
Wind Variable Wind from WSW
Gusts 0.0 mph

Today
High -- | Low -- °F
--% Chance of Precip.
Yesterday
High -- | Low -- °F
Precip. -- in
5:54 AM 8:36 PM
Waning Gibbous, 90% visible
Pressure 29.86 in
Visibility 10.0 miles
Clouds Clear
Heat Index 77 °F
Dew Point 56 °F
Humidity 55%
Rainfall 0.00 in
Snow Depth Not available.
UV 0 out of 12
Pollen 5.00 out of 12
Air Quality Not available.
Flu Activity Not available.
METAR KTTD 030253Z 27003KT 10SM CLR 25/14 A2986 RMK AO2 SLP110 T02500139 55009 $

More Conditions Fewer Conditions

Pressure 29.86 in
Visibility 10.0 miles
Clouds Clear
Heat Index 77 °F
Dew Point 56 °F
Humidity 55%
Rainfall 0.00 in
Snow Depth Not available.
UV 0 out of 12
Pollen 5.00 out of 12
Air Quality Not available.
Flu Activity Not available.
METAR KTTD 030253Z 27003KT 10SM CLR 25/14 A2986 RMK AO2 SLP110 T02500139 55009 $

More Conditions Fewer Conditions

10-Day Weather Forecast

×

Almanac

Astronomy

Aug. 02, 2015 Rise Set
Actual Time
Civil Twilight
Nautical Twilight
Astronomical Twilight
Moon
Length of Visible Light
Length of Day
Tomorrow will be .
, % of the Moon is Illuminated

Today's Extremes

State Highs State Lows

Community

WunderPhotos

Upload Photos

1,843,563 photos uploaded!

WunderBlogs® & News

Nearby

Air Quality

  Air Quality AQ Index Pollutant
Not available.

Snow Depth

Station Depth Elevation

Earthquake Activity

City Distance Mag. Time & Date
Minimum magnitude displayed is 2.5.

Coastal Water Temperatures

Place Temperature

Stations

Nearby Weather Stations

Station Location Temp. Windchill Dew Point Humidity Wind Precip. Elev Updated Type